Dati Storici

Data ora Umidita' aria (%) Temperatura aria (°C) Rad globale (W/m²) Gonioanemometro (°) Tacoanemometro (m/s) Pioggia (mm)
09-11-2012 10:10 84.6 % 7.537 218.168 34.718 1.042 0
09-11-2012 10:00 85.4 % 6.967 192.352 51.442 0.615 0
09-11-2012 09:50 86 % 6.682 186.318 26.295 1.629 0
09-11-2012 09:40 88.1 % 6.826 173.354 5.498 0.768 0
09-11-2012 09:30 90.3 % 6.543 150.451 2.584 1.507 0
09-11-2012 09:20 92.1 % 6.253 125.745 19.604 1.485 0
09-11-2012 09:10 93.1 % 5.932 102.684 5.599 1.117 0
09-11-2012 09:00 93.6 % 5.64 81.811 29.108 0.91 0
09-11-2012 08:50 93.7 % 5.46 61.317 42.574 0.582 0
09-11-2012 08:40 93.9 % 5.302 45.019 352.16 0.63 0
09-11-2012 08:30 93.5 % 4.96 31.136 33.227 0.503 0
09-11-2012 08:20 93.6 % 4.973 17.34 10.716 0.417 0
09-11-2012 08:10 93.3 % 4.95 8.31 33.05 0.604 0
09-11-2012 08:00 93.1 % 5.032 4.263 43.745 1.526 0
09-11-2012 07:50 92.8 % 5.012 2.572 36.587 0.665 0
09-11-2012 07:40 92.5 % 5.16 1.917 341.877 1.01 0
09-11-2012 07:30 92.2 % 5.255 1.738 347.811 0.474 0
09-11-2012 07:20 92.2 % 5.439 1.97 32.829 0.609 0
09-11-2012 07:10 91.9 % 5.581 1.752 20.959 0.865 0
09-11-2012 07:00 91.9 % 5.744 1.998 15.181 0.921 0

I dati sono presentati in modo automatico a scopo informativo. In seguito a verifica i dati possono subire modifiche o essere invalidati e non riportati negli archivi definitivi.